Time;durP1;ratioP1;P1;durP2;ratioP2;P2;SDS_P1;SDS_P2;PMS_P1;PMS_P2;Temp;Humidity;BMP_temperature;BMP_pressure;BME280_temperature;BME280_humidity;BME280_pressure;Samples;Min_cycle;Max_cycle;Signal;HPM_P1;HPM_P2
2022/11/22 00:00:04;;;;;;;19.20;9.55;;;;;;;;;;5012021;28;98279;-70
2022/11/22 00:02:31;;;;;;;27.02;11.30;;;;;;;;;;5007946;28;98798;-70
2022/11/22 00:04:57;;;;;;;20.52;9.85;;;;;;;;;;5007512;28;98322;-70
2022/11/22 00:07:25;;;;;;;26.10;10.65;;;;;;;;;;5008995;28;99469;-70
2022/11/22 00:09:52;;;;;;;21.77;11.23;;;;;;;;;;5008094;28;99357;-70
2022/11/22 00:12:18;;;;;;;24.48;11.18;;;;;;;;;;5008488;28;98478;-71
2022/11/22 00:14:44;;;;;;;26.27;10.55;;;;;;;;;;5007985;28;99363;-70
2022/11/22 00:17:11;;;;;;;25.33;10.75;;;;;;;;;;5008351;28;100121;-70
2022/11/22 00:19:41;;;;;;;23.10;10.13;;;;;;;;;;5007754;28;99037;-70
2022/11/22 00:22:07;;;;;;;22.60;10.90;;;;;;;;;;5011822;28;99474;-71
2022/11/22 00:24:34;;;;;;;18.83;11.50;;;;;;;;;;5006053;28;98309;-69
2022/11/22 00:27:00;;;;;;;22.27;11.68;;;;;;;;;;5008257;28;98766;-69
2022/11/22 00:29:26;;;;;;;29.35;12.80;;;;;;;;;;5008271;28;99256;-69
2022/11/22 00:31:53;;;;;;;24.50;12.82;;;;;;;;;;5007097;28;98243;-70
2022/11/22 00:34:19;;;;;;;17.98;11.35;;;;;;;;;;5008516;28;99508;-69
2022/11/22 00:36:46;;;;;;;23.75;11.07;;;;;;;;;;5007953;28;99961;-70
2022/11/22 00:39:12;;;;;;;25.38;12.65;;;;;;;;;;5007825;28;98267;-69
2022/11/22 00:41:38;;;;;;;22.45;12.23;;;;;;;;;;5007981;28;99347;-70
2022/11/22 00:44:05;;;;;;;22.48;12.98;;;;;;;;;;5010681;28;99076;-70
2022/11/22 00:46:31;;;;;;;17.02;11.82;;;;;;;;;;5007542;28;99477;-70
2022/11/22 00:48:57;;;;;;;21.40;12.77;;;;;;;;;;4988948;28;100174;-70
2022/11/22 00:51:24;;;;;;;29.15;12.65;;;;;;;;;;5005219;28;98269;-70
2022/11/22 00:53:50;;;;;;;25.67;12.13;;;;;;;;;;5007826;28;99853;-70
2022/11/22 00:56:16;;;;;;;28.52;10.88;;;;;;;;;;5006961;28;99153;-69
2022/11/22 00:58:43;;;;;;;26.98;13.43;;;;;;;;;;5007179;28;98683;-69
2022/11/22 01:01:09;;;;;;;15.40;11.63;;;;;;;;;;5006556;28;98681;-70
2022/11/22 01:03:35;;;;;;;21.40;12.15;;;;;;;;;;5007164;28;100021;-70
2022/11/22 01:06:02;;;;;;;27.75;11.02;;;;;;;;;;5010578;28;98347;-70
2022/11/22 01:08:28;;;;;;;23.88;11.43;;;;;;;;;;5006990;28;100038;-70
2022/11/22 01:10:55;;;;;;;20.25;11.73;;;;;;;;;;5008243;28;98418;-71
2022/11/22 01:13:22;;;;;;;20.33;11.60;;;;;;;;;;5007927;28;99958;-71
2022/11/22 01:15:48;;;;;;;25.50;11.95;;;;;;;;;;5006800;28;99902;-70
2022/11/22 01:18:14;;;;;;;20.63;10.52;;;;;;;;;;5007234;28;98334;-70
2022/11/22 01:20:41;;;;;;;23.50;11.48;;;;;;;;;;5006763;28;99735;-70
2022/11/22 01:23:07;;;;;;;22.20;12.32;;;;;;;;;;4987784;28;99942;-70
2022/11/22 01:25:34;;;;;;;18.92;11.00;;;;;;;;;;4987447;28;98300;-70
2022/11/22 01:28:00;;;;;;;21.20;11.13;;;;;;;;;;4990456;28;99456;-70
2022/11/22 01:30:26;;;;;;;22.70;11.85;;;;;;;;;;4987124;28;98933;-70
2022/11/22 01:32:53;;;;;;;20.70;10.82;;;;;;;;;;4987405;28;98720;-70
2022/11/22 01:35:19;;;;;;;16.42;11.00;;;;;;;;;;4987138;28;99923;-70
2022/11/22 01:37:45;;;;;;;18.42;12.10;;;;;;;;;;4991704;28;98337;-70
2022/11/22 01:40:12;;;;;;;24.67;13.02;;;;;;;;;;4994479;28;99307;-70
2022/11/22 01:42:45;;;;;;;23.30;11.93;;;;;;;;;;5009880;28;99066;-70
2022/11/22 01:45:30;;;;;;;33.78;13.30;;;;;;;;;;5010570;28;98761;-69
2022/11/22 01:48:03;;;;;;;20.95;11.65;;;;;;;;;;5013998;28;99526;-70
2022/11/22 01:50:31;;;;;;;27.75;12.65;;;;;;;;;;5010240;28;98186;-70
2022/11/22 01:53:01;;;;;;;22.42;11.88;;;;;;;;;;5010926;28;99715;-69
2022/11/22 01:55:28;;;;;;;25.90;12.65;;;;;;;;;;5009938;28;99899;-69
2022/11/22 01:57:55;;;;;;;22.23;13.23;;;;;;;;;;5009610;28;98270;-70
2022/11/22 02:00:21;;;;;;;20.80;12.98;;;;;;;;;;5010251;28;98822;-70
2022/11/22 02:02:59;;;;;;;24.85;12.50;;;;;;;;;;5009478;28;99949;-70
2022/11/22 02:05:28;;;;;;;28.23;13.20;;;;;;;;;;5010703;28;98145;-70
2022/11/22 02:08:13;;;;;;;22.40;12.85;;;;;;;;;;5010721;28;99390;-70
2022/11/22 02:10:42;;;;;;;25.90;11.80;;;;;;;;;;5012514;28;99191;-70
2022/11/22 02:13:09;;;;;;;28.60;13.02;;;;;;;;;;4998463;28;99430;-70
2022/11/22 02:15:35;;;;;;;27.25;13.10;;;;;;;;;;4991396;28;100040;-70
2022/11/22 02:18:02;;;;;;;27.10;12.43;;;;;;;;;;5010496;28;98366;-70
2022/11/22 02:20:28;;;;;;;36.22;12.90;;;;;;;;;;5010841;28;99376;-70
2022/11/22 02:22:56;;;;;;;24.20;13.02;;;;;;;;;;5010203;28;100233;-70
2022/11/22 02:25:31;;;;;;;35.15;13.52;;;;;;;;;;5008897;28;98339;-70
2022/11/22 02:27:57;;;;;;;32.20;13.23;;;;;;;;;;5009913;28;98546;-70
2022/11/22 02:30:24;;;;;;;23.33;11.80;;;;;;;;;;4994346;28;99018;-70
2022/11/22 02:32:50;;;;;;;27.42;13.50;;;;;;;;;;4993224;28;98423;-70
2022/11/22 02:35:16;;;;;;;20.98;12.23;;;;;;;;;;4989404;28;99039;-69
2022/11/22 02:37:43;;;;;;;26.63;12.98;;;;;;;;;;4989057;28;98315;-70
2022/11/22 02:40:12;;;;;;;30.02;12.00;;;;;;;;;;4991369;28;99366;-69
2022/11/22 02:42:39;;;;;;;30.48;12.65;;;;;;;;;;5008921;28;100128;-69
2022/11/22 02:45:05;;;;;;;22.77;11.18;;;;;;;;;;5008366;28;98156;-69
2022/11/22 02:47:32;;;;;;;31.35;11.18;;;;;;;;;;4992100;28;100767;-69
2022/11/22 02:49:58;;;;;;;31.83;10.68;;;;;;;;;;4988179;28;99892;-69
2022/11/22 02:52:24;;;;;;;26.02;10.02;;;;;;;;;;4988032;28;98358;-70
2022/11/22 02:54:51;;;;;;;31.58;10.45;;;;;;;;;;4992167;28;99514;-70
2022/11/22 02:57:17;;;;;;;24.60;10.73;;;;;;;;;;4988576;28;98313;-70
2022/11/22 02:59:43;;;;;;;25.50;9.38;;;;;;;;;;4988130;28;99854;-70
2022/11/22 03:02:10;;;;;;;15.65;9.07;;;;;;;;;;4988340;28;100193;-70
2022/11/22 03:04:36;;;;;;;29.20;9.90;;;;;;;;;;4988826;28;98369;-70
2022/11/22 03:07:03;;;;;;;26.42;8.60;;;;;;;;;;4988550;28;98585;-70
2022/11/22 03:09:30;;;;;;;22.10;7.45;;;;;;;;;;4988486;28;100524;-70
2022/11/22 03:11:57;;;;;;;20.52;8.02;;;;;;;;;;4987888;28;98414;-70
2022/11/22 03:14:24;;;;;;;21.77;7.40;;;;;;;;;;4986814;28;98661;-70
2022/11/22 03:16:51;;;;;;;16.92;6.95;;;;;;;;;;4991410;28;102024;-70
2022/11/22 03:19:17;;;;;;;22.83;6.55;;;;;;;;;;4988392;28;99484;-70
2022/11/22 03:21:44;;;;;;;21.58;6.65;;;;;;;;;;4988120;28;100054;-70
2022/11/22 03:24:10;;;;;;;25.60;7.20;;;;;;;;;;4988448;28;98257;-70
2022/11/22 03:26:37;;;;;;;21.85;5.97;;;;;;;;;;4987675;28;98894;-70
2022/11/22 03:29:03;;;;;;;20.27;6.65;;;;;;;;;;4987262;28;99447;-70
2022/11/22 03:31:30;;;;;;;22.38;5.90;;;;;;;;;;4988512;28;98443;-70
2022/11/22 03:33:56;;;;;;;29.85;7.55;;;;;;;;;;4988072;28;99657;-70
2022/11/22 03:36:23;;;;;;;24.38;6.05;;;;;;;;;;4987247;28;99064;-70
2022/11/22 03:38:49;;;;;;;26.98;6.68;;;;;;;;;;4997914;28;98642;-70
2022/11/22 03:41:16;;;;;;;22.77;5.70;;;;;;;;;;5002254;28;100300;-70
2022/11/22 03:43:42;;;;;;;30.33;4.93;;;;;;;;;;4987534;28;98290;-70
2022/11/22 03:46:15;;;;;;;25.08;6.40;;;;;;;;;;4988040;28;99944;-70
2022/11/22 03:48:41;;;;;;;25.45;5.53;;;;;;;;;;4986738;28;99151;-70
2022/11/22 03:51:08;;;;;;;21.58;5.65;;;;;;;;;;4988269;28;98955;-70
2022/11/22 03:53:34;;;;;;;19.95;5.18;;;;;;;;;;4987900;28;100641;-70
2022/11/22 03:56:01;;;;;;;17.90;3.67;;;;;;;;;;4988037;28;100235;-70
2022/11/22 03:58:27;;;;;;;21.83;5.38;;;;;;;;;;4990999;28;98324;-70
2022/11/22 04:00:54;;;;;;;30.15;5.50;;;;;;;;;;4987604;28;100221;-70
2022/11/22 04:03:21;;;;;;;18.90;4.38;;;;;;;;;;4986286;28;98346;-69
2022/11/22 04:05:47;;;;;;;14.23;4.68;;;;;;;;;;4988298;28;99841;-69
2022/11/22 04:08:14;;;;;;;23.83;4.50;;;;;;;;;;4986889;28;99423;-70
2022/11/22 04:10:40;;;;;;;33.10;6.03;;;;;;;;;;4987146;28;98368;-70
2022/11/22 04:13:06;;;;;;;16.67;4.18;;;;;;;;;;4987913;28;99538;-70
2022/11/22 04:15:33;;;;;;;29.33;4.63;;;;;;;;;;4987022;28;99947;-70
2022/11/22 04:17:59;;;;;;;21.23;4.90;;;;;;;;;;4987100;28;98545;-71
2022/11/22 04:23:12;;;;;;;18.88;4.20;;;;;;;;;;4987378;28;98282;-70
2022/11/22 04:25:39;;;;;;;17.60;4.85;;;;;;;;;;4986215;28;98553;-70
2022/11/22 04:28:06;;;;;;;16.75;4.20;;;;;;;;;;4987123;28;99918;-70
2022/11/22 04:33:18;;;;;;;23.55;4.70;;;;;;;;;;4987531;28;99465;-70
2022/11/22 04:35:45;;;;;;;15.05;4.45;;;;;;;;;;4986418;28;99132;-71
2022/11/22 04:38:12;;;;;;;22.50;5.00;;;;;;;;;;4986509;28;98312;-70
2022/11/22 04:40:39;;;;;;;19.83;4.60;;;;;;;;;;4994716;28;99544;-70
2022/11/22 04:45:51;;;;;;;20.35;4.05;;;;;;;;;;4997093;28;98398;-70
2022/11/22 04:48:17;;;;;;;12.23;3.55;;;;;;;;;;4986316;28;99083;-70
2022/11/22 04:53:29;;;;;;;19.30;3.95;;;;;;;;;;4985518;28;99439;-70
2022/11/22 04:55:56;;;;;;;17.55;3.95;;;;;;;;;;4986929;28;99248;-70
2022/11/22 04:58:22;;;;;;;31.20;4.93;;;;;;;;;;4986835;28;98319;-69
2022/11/22 05:00:48;;;;;;;17.75;3.70;;;;;;;;;;4985810;28;98527;-70
2022/11/22 05:03:15;;;;;;;24.88;4.50;;;;;;;;;;4986459;28;98953;-69
2022/11/22 05:05:42;;;;;;;26.10;4.25;;;;;;;;;;4989161;28;98265;-70
2022/11/22 05:08:09;;;;;;;21.38;3.40;;;;;;;;;;4986639;28;100199;-69
2022/11/22 05:13:23;;;;;;;23.15;4.13;;;;;;;;;;4985412;28;99049;-70
2022/11/22 05:15:52;;;;;;;19.17;3.60;;;;;;;;;;4986211;28;99659;-69
2022/11/22 05:18:19;;;;;;;21.38;4.10;;;;;;;;;;5003461;28;98625;-70
2022/11/22 05:20:45;;;;;;;22.92;3.90;;;;;;;;;;4987820;28;98742;-69
2022/11/22 05:25:57;;;;;;;17.77;3.55;;;;;;;;;;4985917;28;98231;-69
2022/11/22 05:28:26;;;;;;;22.02;3.97;;;;;;;;;;4988885;28;99463;-70
2022/11/22 05:30:52;;;;;;;20.02;3.20;;;;;;;;;;4986563;28;98326;-69
2022/11/22 05:33:19;;;;;;;13.85;3.67;;;;;;;;;;4986483;28;99576;-69
2022/11/22 05:35:45;;;;;;;21.42;3.95;;;;;;;;;;4986276;28;100399;-70
2022/11/22 05:38:11;;;;;;;27.95;4.18;;;;;;;;;;4986154;28;98782;-69
2022/11/22 05:40:38;;;;;;;24.00;4.18;;;;;;;;;;4992489;28;99437;-69
2022/11/22 05:43:04;;;;;;;20.85;3.33;;;;;;;;;;4991188;28;100064;-69
2022/11/22 05:45:32;;;;;;;28.00;3.75;;;;;;;;;;4986075;28;98325;-70
2022/11/22 05:47:58;;;;;;;20.25;4.20;;;;;;;;;;4985240;28;98798;-70
2022/11/22 05:50:25;;;;;;;26.85;4.47;;;;;;;;;;4989064;28;98321;-70
2022/11/22 05:52:54;;;;;;;16.58;4.60;;;;;;;;;;4986545;28;99220;-70
2022/11/22 05:55:20;;;;;;;18.13;3.53;;;;;;;;;;4985557;28;100028;-70
2022/11/22 05:57:47;;;;;;;13.43;3.05;;;;;;;;;;4986151;28;98847;-70
2022/11/22 06:00:13;;;;;;;28.73;4.00;;;;;;;;;;4986075;28;98838;-70
2022/11/22 06:02:40;;;;;;;11.07;3.17;;;;;;;;;;4984178;28;99607;-70
2022/11/22 06:05:06;;;;;;;21.60;4.05;;;;;;;;;;4985789;28;98238;-70
2022/11/22 06:07:33;;;;;;;26.50;4.63;;;;;;;;;;4984196;28;98855;-69
2022/11/22 06:09:59;;;;;;;19.20;3.97;;;;;;;;;;4989254;28;100121;-69
2022/11/22 06:12:26;;;;;;;22.35;2.80;;;;;;;;;;4985906;28;99370;-70
2022/11/22 06:14:52;;;;;;;17.77;3.47;;;;;;;;;;4985515;28;99198;-69
2022/11/22 06:17:18;;;;;;;28.63;4.00;;;;;;;;;;4985521;28;98568;-69
2022/11/22 06:19:45;;;;;;;12.70;3.70;;;;;;;;;;4985864;28;99501;-69
2022/11/22 06:22:11;;;;;;;15.75;3.15;;;;;;;;;;4985280;28;99844;-69
2022/11/22 06:24:37;;;;;;;16.88;4.05;;;;;;;;;;4989017;28;98254;-71
2022/11/22 06:27:04;;;;;;;22.77;3.45;;;;;;;;;;4989928;28;99436;-71
2022/11/22 06:29:30;;;;;;;21.08;4.10;;;;;;;;;;4988945;28;100087;-69
2022/11/22 06:31:57;;;;;;;15.75;4.47;;;;;;;;;;4991389;28;98325;-70
2022/11/22 06:34:28;;;;;;;19.40;3.95;;;;;;;;;;5000303;28;99736;-70
2022/11/22 06:36:55;;;;;;;13.60;3.22;;;;;;;;;;5006600;28;98129;-70
2022/11/22 06:39:21;;;;;;;19.02;2.33;;;;;;;;;;5005751;28;98650;-70
2022/11/22 06:41:47;;;;;;;11.52;2.95;;;;;;;;;;5007976;28;99104;-70
2022/11/22 06:44:14;;;;;;;13.43;3.53;;;;;;;;;;5008631;28;98401;-70
2022/11/22 06:46:40;;;;;;;19.58;3.25;;;;;;;;;;5006552;28;99656;-70
2022/11/22 06:49:06;;;;;;;13.82;3.83;;;;;;;;;;5007875;28;98941;-70
2022/11/22 06:51:33;;;;;;;15.73;3.58;;;;;;;;;;5008631;28;98276;-70
2022/11/22 06:54:00;;;;;;;25.17;4.45;;;;;;;;;;5011206;28;99866;-70
2022/11/22 06:56:27;;;;;;;16.33;4.10;;;;;;;;;;5006636;28;98378;-70
2022/11/22 06:58:55;;;;;;;12.05;3.20;;;;;;;;;;5007455;28;99825;-70
2022/11/22 07:01:23;;;;;;;18.48;3.83;;;;;;;;;;5006850;28;99020;-69
2022/11/22 07:03:50;;;;;;;16.90;3.90;;;;;;;;;;5003202;28;98208;-69
2022/11/22 07:06:17;;;;;;;22.60;4.30;;;;;;;;;;5001176;28;99554;-69
2022/11/22 07:08:45;;;;;;;16.58;4.00;;;;;;;;;;5007177;28;100796;-69
2022/11/22 07:11:12;;;;;;;19.15;3.75;;;;;;;;;;5006890;28;98283;-70
2022/11/22 07:13:39;;;;;;;9.65;3.67;;;;;;;;;;5006856;28;99410;-70
2022/11/22 07:16:06;;;;;;;15.85;3.72;;;;;;;;;;5010639;28;100093;-70
2022/11/22 07:18:33;;;;;;;11.25;2.95;;;;;;;;;;5007080;28;99425;-70
2022/11/22 07:21:01;;;;;;;16.90;3.42;;;;;;;;;;4999196;28;100182;-70
2022/11/22 07:23:32;;;;;;;12.13;3.43;;;;;;;;;;5004258;28;98467;-70
2022/11/22 07:25:58;;;;;;;22.50;3.97;;;;;;;;;;5007444;28;99453;-71
2022/11/22 07:28:26;;;;;;;11.98;2.88;;;;;;;;;;5006826;28;101689;-71
2022/11/22 07:30:52;;;;;;;18.30;3.60;;;;;;;;;;5007990;28;98742;-71
2022/11/22 07:33:18;;;;;;;15.10;4.45;;;;;;;;;;5007164;28;99304;-70
2022/11/22 07:35:45;;;;;;;14.15;3.13;;;;;;;;;;5003636;28;100533;-70
2022/11/22 07:38:11;;;;;;;13.60;3.47;;;;;;;;;;5009522;28;98918;-69
2022/11/22 07:40:38;;;;;;;15.80;3.85;;;;;;;;;;5002316;28;98999;-69
2022/11/22 07:43:04;;;;;;;7.55;2.83;;;;;;;;;;5001299;28;98102;-69
2022/11/22 07:45:30;;;;;;;14.57;4.18;;;;;;;;;;4996112;28;98977;-69
2022/11/22 07:48:00;;;;;;;10.82;3.30;;;;;;;;;;5007625;28;99975;-70
2022/11/22 07:50:26;;;;;;;20.08;4.00;;;;;;;;;;5000749;28;98373;-69
2022/11/22 07:52:54;;;;;;;15.82;4.50;;;;;;;;;;5000020;28;99966;-69
2022/11/22 07:55:20;;;;;;;9.05;3.50;;;;;;;;;;5005270;28;100055;-69
2022/11/22 07:57:46;;;;;;;7.32;3.28;;;;;;;;;;5006905;28;100534;-71
2022/11/22 08:00:13;;;;;;;15.30;4.25;;;;;;;;;;4992233;28;99571;-70
2022/11/22 08:02:39;;;;;;;8.32;2.83;;;;;;;;;;5006267;28;99002;-70
2022/11/22 08:05:07;;;;;;;11.95;3.03;;;;;;;;;;4994019;28;98661;-70
2022/11/22 08:07:33;;;;;;;11.13;3.20;;;;;;;;;;4987261;28;100426;-71
2022/11/22 08:09:59;;;;;;;10.10;3.33;;;;;;;;;;5000896;28;98340;-71
2022/11/22 08:12:26;;;;;;;9.77;2.90;;;;;;;;;;5006024;28;99700;-71
2022/11/22 08:14:52;;;;;;;18.65;3.00;;;;;;;;;;5006305;28;100083;-69
2022/11/22 08:17:18;;;;;;;11.18;4.13;;;;;;;;;;5004143;28;98364;-71
2022/11/22 08:19:45;;;;;;;17.88;4.05;;;;;;;;;;5010541;28;99659;-69
2022/11/22 08:22:11;;;;;;;12.90;3.47;;;;;;;;;;5006603;28;98382;-70
2022/11/22 08:24:38;;;;;;;10.50;4.05;;;;;;;;;;5007293;28;99739;-70
2022/11/22 08:27:04;;;;;;;9.02;3.58;;;;;;;;;;5003893;28;100576;-70
2022/11/22 08:29:30;;;;;;;10.50;3.50;;;;;;;;;;5007230;28;98487;-70
2022/11/22 08:31:57;;;;;;;11.63;5.25;;;;;;;;;;5005030;28;99571;-69
2022/11/22 08:34:23;;;;;;;7.88;3.30;;;;;;;;;;4988702;28;100215;-69
2022/11/22 08:36:50;;;;;;;13.38;3.58;;;;;;;;;;5006754;28;98285;-70
2022/11/22 08:39:16;;;;;;;9.77;3.92;;;;;;;;;;5007469;28;99408;-70
2022/11/22 08:41:42;;;;;;;14.55;3.45;;;;;;;;;;5009145;28;99199;-71
2022/11/22 08:44:09;;;;;;;13.05;4.20;;;;;;;;;;5003979;28;99393;-71
2022/11/22 08:46:35;;;;;;;9.70;3.63;;;;;;;;;;5004548;28;99053;-71
2022/11/22 08:49:05;;;;;;;9.00;3.42;;;;;;;;;;4996450;28;98323;-71
2022/11/22 08:51:32;;;;;;;6.57;3.50;;;;;;;;;;4986569;28;98698;-71
2022/11/22 08:53:58;;;;;;;5.65;3.00;;;;;;;;;;4987100;28;99157;-71
2022/11/22 08:56:24;;;;;;;12.40;3.40;;;;;;;;;;5003453;28;98828;-71
2022/11/22 08:58:51;;;;;;;10.63;3.42;;;;;;;;;;5003663;28;99055;-71
2022/11/22 09:01:17;;;;;;;15.60;3.58;;;;;;;;;;5004480;28;99753;-71
2022/11/22 09:03:44;;;;;;;10.32;3.55;;;;;;;;;;5009791;28;98115;-71
2022/11/22 09:06:13;;;;;;;11.63;3.25;;;;;;;;;;5002824;28;101629;-71
2022/11/22 09:08:59;;;;;;;20.50;4.10;;;;;;;;;;5006577;28;99157;-70
2022/11/22 09:11:45;;;;;;;6.47;2.83;;;;;;;;;;5006680;28;99519;-71
2022/11/22 09:14:12;;;;;;;13.90;3.25;;;;;;;;;;5005144;28;100013;-71
2022/11/22 09:16:38;;;;;;;15.73;3.40;;;;;;;;;;5005341;28;98267;-71
2022/11/22 09:19:04;;;;;;;4.50;2.63;;;;;;;;;;5006232;28;99526;-71
2022/11/22 09:21:31;;;;;;;8.55;3.40;;;;;;;;;;5006429;28;100099;-71
2022/11/22 09:23:57;;;;;;;13.77;3.35;;;;;;;;;;5005776;28;98297;-71
2022/11/22 09:26:24;;;;;;;9.38;3.20;;;;;;;;;;5007939;28;100028;-71
2022/11/22 09:28:51;;;;;;;16.45;3.17;;;;;;;;;;5006773;28;98274;-71
2022/11/22 09:31:19;;;;;;;12.65;3.58;;;;;;;;;;5003354;28;99826;-71
2022/11/22 09:33:46;;;;;;;7.68;2.88;;;;;;;;;;5004027;28;99157;-71
2022/11/22 09:36:13;;;;;;;15.30;3.55;;;;;;;;;;5005059;28;98292;-70
2022/11/22 09:38:40;;;;;;;14.65;4.00;;;;;;;;;;5006090;28;99277;-69
2022/11/22 09:41:18;;;;;;;8.38;2.38;;;;;;;;;;5006123;28;99915;-70
2022/11/22 09:43:50;;;;;;;10.63;4.07;;;;;;;;;;5003496;28;98879;-70
2022/11/22 09:46:17;;;;;;;14.48;3.72;;;;;;;;;;5002968;28;99541;-69
2022/11/22 09:48:55;;;;;;;22.60;4.18;;;;;;;;;;5003231;28;100208;-70
2022/11/22 09:51:24;;;;;;;11.80;3.53;;;;;;;;;;4997867;28;98349;-70
2022/11/22 09:53:53;;;;;;;8.52;2.95;;;;;;;;;;5006386;28;100135;-69
2022/11/22 09:56:22;;;;;;;8.57;3.70;;;;;;;;;;5004127;28;98990;-69
2022/11/22 09:58:53;;;;;;;6.43;2.63;;;;;;;;;;5007619;28;98722;-69
2022/11/22 10:01:30;;;;;;;15.57;3.33;;;;;;;;;;4988726;28;100166;-71
2022/11/22 10:04:00;;;;;;;11.88;3.00;;;;;;;;;;5004389;28;98404;-70
2022/11/22 10:06:30;;;;;;;12.10;2.90;;;;;;;;;;5008395;28;99490;-70
2022/11/22 10:09:09;;;;;;;5.13;2.42;;;;;;;;;;5011796;28;99276;-70
2022/11/22 10:11:38;;;;;;;8.48;3.10;;;;;;;;;;5009439;28;99500;-70
2022/11/22 10:14:27;;;;;;;10.50;2.80;;;;;;;;;;5006715;28;99497;-70
2022/11/22 10:17:01;;;;;;;7.82;2.95;;;;;;;;;;4994839;28;99100;-70
2022/11/22 10:19:33;;;;;;;7.32;2.67;;;;;;;;;;5005544;28;99903;-71
2022/11/22 10:22:00;;;;;;;11.15;3.47;;;;;;;;;;5008190;28;100514;-71
2022/11/22 10:24:27;;;;;;;9.65;3.05;;;;;;;;;;5007472;28;98299;-71
2022/11/22 10:26:56;;;;;;;7.93;3.15;;;;;;;;;;5008946;28;98364;-71
2022/11/22 10:29:35;;;;;;;12.63;3.40;;;;;;;;;;5008500;28;100157;-71
2022/11/22 10:32:17;;;;;;;10.57;3.55;;;;;;;;;;5012757;28;98204;-72
2022/11/22 10:35:02;;;;;;;8.10;2.42;;;;;;;;;;5003313;28;100023;-71
2022/11/22 10:37:47;;;;;;;9.10;4.20;;;;;;;;;;4995437;28;98335;-71
2022/11/22 10:40:29;;;;;;;8.95;3.25;;;;;;;;;;5003795;28;99922;-71
2022/11/22 10:43:10;;;;;;;13.70;3.35;;;;;;;;;;4988907;28;100249;-71
2022/11/22 10:45:42;;;;;;;6.82;3.10;;;;;;;;;;4998594;28;98202;-70
2022/11/22 10:48:31;;;;;;;14.68;3.13;;;;;;;;;;5008959;28;99476;-70
2022/11/22 10:51:15;;;;;;;10.57;3.10;;;;;;;;;;5004779;28;100319;-70
2022/11/22 10:53:44;;;;;;;8.43;2.55;;;;;;;;;;4995781;28;98894;-70
2022/11/22 10:56:33;;;;;;;24.50;3.17;;;;;;;;;;5010949;28;98232;-70
2022/11/22 10:59:00;;;;;;;16.40;3.72;;;;;;;;;;4996291;28;98333;-70
2022/11/22 11:01:50;;;;;;;9.00;2.75;;;;;;;;;;5006507;28;99774;-71
2022/11/22 11:04:17;;;;;;;8.85;3.28;;;;;;;;;;5007561;28;100048;-70
2022/11/22 11:06:46;;;;;;;7.88;3.35;;;;;;;;;;5005485;28;98188;-69
2022/11/22 11:09:44;;;;;;;6.95;2.88;;;;;;;;;;5007932;28;98716;-70
2022/11/22 11:12:49;;;;;;;5.80;2.40;;;;;;;;;;4992003;28;101317;-70
2022/11/22 11:15:23;;;;;;;8.02;2.63;;;;;;;;;;5008021;28;98305;-71
2022/11/22 11:17:54;;;;;;;7.95;2.65;;;;;;;;;;4988110;28;99346;-71
2022/11/22 11:20:25;;;;;;;10.65;2.58;;;;;;;;;;5003371;28;100006;-70
2022/11/22 11:22:51;;;;;;;9.13;2.40;;;;;;;;;;5007631;28;98607;-71
2022/11/22 11:25:42;;;;;;;7.93;2.55;;;;;;;;;;5003676;28;100522;-71
2022/11/22 11:28:19;;;;;;;9.40;3.13;;;;;;;;;;4996816;28;99064;-70
2022/11/22 11:31:06;;;;;;;6.90;2.50;;;;;;;;;;4997021;28;99557;-71
2022/11/22 11:33:34;;;;;;;3.92;2.30;;;;;;;;;;5003536;28;100319;-71
2022/11/22 11:36:02;;;;;;;10.85;2.70;;;;;;;;;;4995680;28;98911;-71
2022/11/22 11:38:33;;;;;;;6.18;2.47;;;;;;;;;;5006303;28;99514;-70
2022/11/22 11:41:19;;;;;;;7.55;2.42;;;;;;;;;;5004124;28;99249;-70
2022/11/22 11:43:46;;;;;;;6.18;2.38;;;;;;;;;;5006771;28;99618;-70
2022/11/22 11:46:23;;;;;;;10.73;2.53;;;;;;;;;;5003114;28;100137;-70
2022/11/22 11:48:50;;;;;;;3.17;1.58;;;;;;;;;;5004623;28;99236;-71
2022/11/22 11:51:19;;;;;;;5.72;2.17;;;;;;;;;;5004743;28;99610;-71
2022/11/22 11:53:59;;;;;;;4.28;1.88;;;;;;;;;;5006261;28;100162;-70
2022/11/22 11:56:37;;;;;;;6.65;2.40;;;;;;;;;;5005427;28;98204;-70
2022/11/22 11:59:12;;;;;;;4.90;2.30;;;;;;;;;;5004099;28;99789;-70
2022/11/22 12:01:43;;;;;;;5.03;2.13;;;;;;;;;;4998644;28;100248;-70
2022/11/22 12:04:17;;;;;;;6.90;2.10;;;;;;;;;;5007257;28;98605;-70
2022/11/22 12:06:51;;;;;;;5.07;2.10;;;;;;;;;;4997070;28;99443;-70
2022/11/22 12:09:26;;;;;;;5.38;1.83;;;;;;;;;;4997286;28;98125;-70
2022/11/22 12:11:55;;;;;;;4.53;2.22;;;;;;;;;;4999976;28;99750;-70
2022/11/22 12:14:25;;;;;;;2.75;1.65;;;;;;;;;;5001480;28;99985;-70
2022/11/22 12:17:09;;;;;;;2.40;1.67;;;;;;;;;;5007405;28;98600;-69
2022/11/22 12:19:56;;;;;;;5.70;2.45;;;;;;;;;;5004442;28;100016;-69
2022/11/22 12:22:28;;;;;;;7.63;1.75;;;;;;;;;;5004713;28;99525;-70
2022/11/22 12:25:15;;;;;;;2.85;1.80;;;;;;;;;;4988979;28;98280;-69
2022/11/22 12:28:17;;;;;;;3.83;1.80;;;;;;;;;;5006008;28;100044;-69
2022/11/22 12:30:45;;;;;;;5.10;1.70;;;;;;;;;;4995616;28;98385;-69
2022/11/22 12:33:16;;;;;;;2.88;1.45;;;;;;;;;;5001221;28;99395;-70
2022/11/22 12:35:44;;;;;;;6.55;2.13;;;;;;;;;;5004895;28;100185;-69
2022/11/22 12:38:19;;;;;;;2.00;1.48;;;;;;;;;;5006175;28;98240;-70
2022/11/22 12:40:48;;;;;;;1.58;1.48;;;;;;;;;;5002721;28;99326;-70
2022/11/22 12:43:22;;;;;;;3.97;1.95;;;;;;;;;;5000523;28;99594;-70
2022/11/22 12:45:53;;;;;;;4.18;2.00;;;;;;;;;;5002931;28;100431;-70
2022/11/22 12:48:33;;;;;;;6.20;1.50;;;;;;;;;;5006234;28;98570;-70
2022/11/22 12:51:06;;;;;;;2.97;1.70;;;;;;;;;;5006612;28;99666;-70
2022/11/22 12:53:32;;;;;;;;;;;;;;;;;;4991570;28;99641;-70
2022/11/22 12:56:13;;;;;;;4.93;1.88;;;;;;;;;;4997939;28;128720;-70
2022/11/22 12:58:46;;;;;;;3.03;2.20;;;;;;;;;;5002238;28;100081;-69
2022/11/22 13:01:21;;;;;;;2.95;1.70;;;;;;;;;;4997780;28;99706;-71
2022/11/22 13:04:09;;;;;;;6.00;1.92;;;;;;;;;;5004352;28;101159;-69
2022/11/22 13:06:44;;;;;;;3.25;1.83;;;;;;;;;;5004080;28;98354;-68
2022/11/22 13:09:13;;;;;;;4.07;2.40;;;;;;;;;;5004867;28;99554;-70
2022/11/22 13:11:46;;;;;;;3.35;1.60;;;;;;;;;;5004776;28;100054;-69
2022/11/22 13:14:12;;;;;;;;;;;;;;;;;;4998435;28;100121;-69
2022/11/22 13:16:44;;;;;;;2.22;1.40;;;;;;;;;;4999899;28;130238;-68
2022/11/22 13:19:13;;;;;;;2.20;1.38;;;;;;;;;;4999128;28;98222;-68
2022/11/22 13:21:48;;;;;;;2.05;1.60;;;;;;;;;;5003404;28;98729;-69
2022/11/22 13:24:30;;;;;;;3.05;1.58;;;;;;;;;;4998464;28;100417;-69
2022/11/22 13:27:12;;;;;;;4.45;2.10;;;;;;;;;;5003511;28;100562;-69
2022/11/22 13:29:39;;;;;;;2.58;1.88;;;;;;;;;;5004137;28;99006;-69
2022/11/22 13:32:06;;;;;;;2.95;1.63;;;;;;;;;;5006628;28;99303;-69
2022/11/22 13:34:35;;;;;;;1.85;1.67;;;;;;;;;;5009182;28;98447;-69
2022/11/22 13:37:03;;;;;;;1.83;1.55;;;;;;;;;;5012241;28;98599;-69
2022/11/22 13:39:29;;;;;;;3.92;1.67;;;;;;;;;;5008625;28;98899;-69
2022/11/22 13:41:56;;;;;;;1.70;1.38;;;;;;;;;;5009271;28;99669;-69
2022/11/22 13:44:22;;;;;;;2.50;1.80;;;;;;;;;;5008586;28;99578;-69
2022/11/22 13:46:48;;;;;;;4.05;1.92;;;;;;;;;;5009396;28;98303;-69
2022/11/22 13:49:27;;;;;;;2.75;1.65;;;;;;;;;;5006546;28;99491;-69
2022/11/22 13:52:04;;;;;;;4.13;1.77;;;;;;;;;;4989257;28;100465;-69
2022/11/22 13:54:36;;;;;;;1.50;1.40;;;;;;;;;;4989152;28;98394;-69
2022/11/22 13:57:21;;;;;;;2.63;1.98;;;;;;;;;;4989534;28;99505;-69
2022/11/22 14:00:07;;;;;;;2.00;1.63;;;;;;;;;;4992760;28;99966;-69
2022/11/22 14:02:34;;;;;;;2.03;1.60;;;;;;;;;;5007026;28;100349;-69
2022/11/22 14:05:00;;;;;;;4.13;1.83;;;;;;;;;;5009757;28;99352;-69
2022/11/22 14:07:34;;;;;;;1.30;1.20;;;;;;;;;;5008082;28;98309;-69
2022/11/22 14:10:01;;;;;;;1.58;1.30;;;;;;;;;;5009046;28;98542;-69
2022/11/22 14:12:36;;;;;;;2.00;1.50;;;;;;;;;;5005717;28;99634;-69
2022/11/22 14:15:21;;;;;;;3.75;1.50;;;;;;;;;;5008870;28;98258;-70
2022/11/22 14:17:48;;;;;;;1.67;1.58;;;;;;;;;;5009197;28;99653;-70
2022/11/22 14:20:36;;;;;;;7.57;1.23;;;;;;;;;;5008960;28;100102;-69
2022/11/22 14:23:13;;;;;;;4.05;1.40;;;;;;;;;;5012226;28;98210;-69
2022/11/22 14:25:44;;;;;;;3.17;1.40;;;;;;;;;;5009198;28;100382;-69
2022/11/22 14:28:29;;;;;;;2.05;1.20;;;;;;;;;;5009448;28;98175;-69
2022/11/22 14:30:56;;;;;;;2.65;1.33;;;;;;;;;;5009382;28;99475;-69
2022/11/22 14:33:24;;;;;;;1.20;1.10;;;;;;;;;;5008418;28;100498;-69
2022/11/22 14:36:02;;;;;;;3.88;1.50;;;;;;;;;;5008211;28;98135;-69
2022/11/22 14:38:30;;;;;;;1.83;1.48;;;;;;;;;;5008845;28;99686;-70
2022/11/22 14:41:15;;;;;;;3.67;1.80;;;;;;;;;;5008689;28;100059;-69
2022/11/22 14:43:42;;;;;;;4.60;1.77;;;;;;;;;;5010608;28;98638;-69
2022/11/22 14:46:11;;;;;;;3.05;1.40;;;;;;;;;;5008636;28;99972;-70
2022/11/22 14:48:57;;;;;;;1.52;1.42;;;;;;;;;;5004462;28;98208;-71
2022/11/22 14:51:28;;;;;;;1.60;1.48;;;;;;;;;;4993020;28;98683;-70
2022/11/22 14:54:03;;;;;;;1.40;1.30;;;;;;;;;;4988648;28;100270;-71
2022/11/22 14:56:34;;;;;;;1.25;1.13;;;;;;;;;;4987796;28;98171;-70
2022/11/22 14:59:09;;;;;;;1.88;1.20;;;;;;;;;;4987234;28;98795;-70
2022/11/22 15:01:41;;;;;;;1.55;1.10;;;;;;;;;;4987862;28;100022;-70